If you wish to contribute or participate in the discussions about articles you are invited to join SKYbrary as a registered user

 Actions

Abeid Amani Karume International Airport

From SKYbrary Wiki

HTZA
Airport
ICAO: HTZA – IATA: ZNZ
Summary
Name Abeid Amani Karume International Airport
Region Africa
Territory Tanzania TZ.gif
Location Zanzibar City, Unguja Airport
Serving Zanzibar
Elevation 16.459 m
54 ft16.459 m
Coordinates 6° 13' 19.99" S, 39° 13' 30.00" E
Runways
Designator Length Width Surface ROPS
18/36 2462 m8,077.428 ft
45 m147.638 ft
ASP yes/yes


METAR
Observation HTZA 112200Z 00000KT 9999 FEW014 23/21 Q1016 NOSIG
Station Zanzibar / Kisauni
Date/Time 11 August 2020 22:00:00
Wind direction
Wind speed 00 kts
Lowest cloud amount few clouds
Temperature 23°C
Dew point 21°C
Humidity 88%
QNH 1016 hPa
Weather condition n/a

Abeid Amani Karume International Airport is the main airport in the Zanzibar Archipelago located on Unguja Island. It was previously known as Kisauni Airport and Zanzibar International Airport.

Climatology

Tropical rainforest climate (Köppen climate classification Af)

Maps

Terrain

Loading map...

Airport Layout

Loading map...


Accidents & Serious Incidents at or in vicinity of HTZA

None on SKYbrary